Medicine Lodge, KS (67104)

3:41 PM CST on February 10, 2016 (GMT -0600)
Pratt Industrial | | Change Station
CLOSE
Current Station
Airport
Location: Pratt,
Elevation: 1952 ft
Nearby Weather Stations

Elev 1952 ft 37.70 °N, 98.75 °W | Updated 6 minutes ago

Clear
Clear
71 °F
Feels Like 71 °F
N
18
Wind Variable Wind from NW
Gusts 25 mph

Today
High -- | Low -- °F
--% Chance of Precip.
Yesterday
High -- | Low -- °F
Precip. -- in
Pressure 29.93 in
Visibility 10.0 miles
Clouds Clear
Dew Point 21 °F
Humidity 15%
Rainfall 0.00 in
Snow Depth Not available.
7:29 AM 6:08 PM
Waxing Crescent, 7% visible
METAR KPTT 102135Z AUTO 32016G22KT 10SM CLR 22/M06 A2993 RMK AO2 T02171061
Pressure 29.93 in
Visibility 10.0 miles
Clouds Clear
Dew Point 21 °F
Humidity 15%
Rainfall 0.00 in
Snow Depth Not available.
7:29 AM 6:08 PM
Waxing Crescent, 7% visible
METAR KPTT 102135Z AUTO 32016G22KT 10SM CLR 22/M06 A2993 RMK AO2 T02171061

10-Day Weather Forecast

Almanac

Astronomy

Feb. 10, 2016 Rise Set
Actual Time
Civil Twilight
Nautical Twilight
Astronomical Twilight
Moon
Length of Visible Light
Length of Day
Tomorrow will be .
, % of the Moon is Illuminated

Today's Extremes

State Highs State Lows

Community

WunderPhotos

Upload Photos

1,891,951 photos uploaded!

WunderBlog® & News

Nearby

Air Quality

  Air Quality AQ Index Pollutant
Not available.

Snow Depth

Station Depth Elevation

Earthquake Activity

City Distance Mag. Time & Date
Minimum magnitude displayed is 2.5.

Coastal Water Temperatures

Place Temperature

Stations

Nearby Weather Stations

Station Location Temp. Windchill Dew Point Humidity Wind Precip. Elev Updated Type
                   

Watches & Warnings

There are currently no watches in effect.